Winners
Box Stock Slash
Round 1
1Box Stock Slash
Heat 1
| # Pos | Laps/Time | Fast | |
|---|---|---|---|
| 1 1. Swjh1 Bumble Bees | 2/0:00.0 | 16:39.999 | |
| 2 2. Soma1 Baja Jerky | 2/0:00.0 | 16:39.999 | |
| 3 3. Slms8 Rapidito | 2/0:00.0 | 16:39.999 | |
| 4 4. Rwms1 Rpm | 2/0:00.0 | 16:39.999 | |
| 6 5. Crane1 Mistletoe | 2/0:00.0 | 16:39.999 | |
| 7 6. Wood5 Roadie Rangers 5 | 2/0:00.0 | 16:39.999 | |
| 5 7. Gv1 Monsters | 0/0:00.0 |
2Box Stock Slash
Heat 2
| # Pos | Laps/Time | Fast | |
|---|---|---|---|
| 1 1. Sl5 Rex | 2/0:00.0 | 16:39.999 | |
| 2 2. Rwms5 The Flash | 2/0:00.0 | 16:39.999 | |
| 4 3. Crane5 Herbie Goes Bananas | 2/0:00.0 | 16:39.999 | |
| 5 4. Crane6 1gpa | 2/0:00.0 | 16:39.999 | |
| 6 5. Wood1 Roadie Rangers1 | 1/0:00.0 | 16:39.999 | |
| 3 6. Wood4 Roadie Rangers 4 | 0/0:00.0 |
3Box Stock Slash
Heat 3
| # Pos | Laps/Time | Fast | |
|---|---|---|---|
| 1 1. Gv2 Gila Monsters | 2/0:00.0 | 16:39.999 | |
| 2 2. Crane2 Grace Agears | 2/0:00.0 | 16:39.999 | |
| 3 3. Wood2 Roadie Rangers 2 | 2/0:00.0 | 16:39.999 | |
| 4 4. Soma6 Desert Cobras | 2/0:00.0 | 16:39.999 | |
| 5 5. Rwms2 G&R | 2/0:00.0 | 16:39.999 | |
| 6 6. Sl6 Rud | 2/0:00.0 | 16:39.999 |
4Box Stock Slash
Heat 4
| # Pos | Laps/Time | Fast | |
|---|---|---|---|
| 2 1. Gv3 Gila Racers | 2/0:00.0 | 16:39.999 | |
| 3 2. Swjh2 Guardians Of Thr Gal | 2/0:00.0 | 16:39.999 | |
| 4 3. Soma2 Rc Reapers | 2/0:00.0 | 16:39.999 | |
| 5 4. Slms2 Speedy | 2/0:00.0 | 16:39.999 | |
| 1 5. Rwms3 The Kings | 1/0:00.0 | 16:39.999 |
5Box Stock Slash
Heat 5
| # Pos | Laps/Time | Fast | |
|---|---|---|---|
| 1 1. Crane4 Blazing Cougars | 2/0:00.0 | 16:39.999 | |
| 2 2. Gv4 Nunez Party | 2/0:00.0 | 16:39.999 | |
| 3 3. Swjh3 Black Mambas | 2/0:00.0 | 16:39.999 | |
| 4 4. Soma3 Dust Devils | 2/0:00.0 | 16:39.999 | |
| 5 5. Sl3 Rusty | 2/0:00.0 | 16:39.999 |
6Box Stock Slash
Heat 6
| # Pos | Laps/Time | Fast | |
|---|---|---|---|
| 1 1. Sl7 Desert King | 2/0:00.0 | 16:39.999 | |
| 2 2. Rwms7 Cmbn | 2/0:00.0 | 16:39.999 | |
| 3 3. Soma4 Clon | 2/0:00.0 | 16:39.999 | |
| 4 4. Sl4 Cruz | 2/0:00.0 | 16:39.999 | |
| 5 5. Rwms4 Fmf Racers | 2/0:00.0 | 16:39.999 |
7Box Stock Slash
Heat 7
| # Pos | Laps/Time | Fast | |
|---|---|---|---|
| 1 1. Rwms6 Thunderstruck | 2/0:00.0 | 16:39.999 | |
| 2 2. Soma5 Master Of Clones | 2/0:00.0 | 16:39.999 | |
| 3 3. Wood3 Roadie Rangers 3 | 2/0:00.0 | 16:39.999 | |
| 4 4. Crane8 Moon Pie | 2/0:00.0 | 16:39.999 | |
| 5 5. Soma7 Pollo Loco | 2/0:00.0 | 16:39.999 |
8Box Stock Slash
Heat 8
| # Pos | Laps/Time | Fast | |
|---|---|---|---|
| 1 1. Sl9 Sonic | 2/0:00.0 | 16:39.999 | |
| 2 2. Crane9 Colton Crew | 2/0:00.0 | 16:39.999 | |
| 3 3. Soma8 Alex 67 | 2/0:00.0 | 16:39.999 | |
| 4 4. Sl8 Blue Demon | 2/0:00.0 | 16:39.999 | |
| 5 5. Rw8 The Baggers | 2/0:00.0 | 16:39.999 |
9Box Stock Slash
Heat 9
| # Pos | Laps/Time | Fast | |
|---|---|---|---|
| 4 1. (Null) | 4/0:00.0 | 16:39.999 | |
| 1 2. Soma10 Cookie Monster | 2/0:00.0 | 16:39.999 | |
| 2 3. Sl10 Maximp | 2/0:00.0 | 16:39.999 | |
| 3 4. Wood5 Roadie Rangers 5 | 2/0:00.0 | 16:39.999 | |
| 5 5. Soma9 Driving Pixies | 2/0:00.0 | 16:39.999 |
Round 2
1Box Stock Slash
Heat 1
| # Pos | Laps/Time | Fast | |
|---|---|---|---|
| 1 1. Swjh1 Bumble Bees | 2/0:00.0 | 16:39.999 | |
| 2 2. Soma1 Baja Jerky | 2/0:00.0 | 16:39.999 | |
| 3 3. Slms8 Rapidito | 2/0:00.0 | 16:39.999 | |
| 4 4. Rwms1 Rpm | 2/0:00.0 | 16:39.999 | |
| 5 5. Gv1 Monsters | 2/0:00.0 | 16:39.999 | |
| 6 6. Crane1 Mistletoe | 2/0:00.0 | 16:39.999 | |
| 7 7. Wood5 Roadie Rangers 5 | 2/0:00.0 | 16:39.999 |
2Box Stock Slash
Heat 2
| # Pos | Laps/Time | Fast | |
|---|---|---|---|
| 1 1. Sl5 Rex | 2/0:00.0 | 16:39.999 | |
| 2 2. Rwms5 The Flash | 2/0:00.0 | 16:39.999 | |
| 3 3. Wood4 Roadie Rangers 4 | 2/0:00.0 | 16:39.999 | |
| 4 4. Crane5 Herbie Goes Bananas | 2/0:00.0 | 16:39.999 | |
| 5 5. Crane6 1gpa | 2/0:00.0 | 16:39.999 | |
| 6 6. Wood1 Roadie Rangers1 | 2/0:00.0 | 16:39.999 |
3Box Stock Slash
Heat 3
| # Pos | Laps/Time | Fast | |
|---|---|---|---|
| 1 1. Gv2 Gila Monsters | 2/0:00.0 | 16:39.999 | |
| 2 2. Crane2 Grace Agears | 2/0:00.0 | 16:39.999 | |
| 3 3. Wood2 Roadie Rangers 2 | 2/0:00.0 | 16:39.999 | |
| 4 4. Soma6 Desert Cobras | 2/0:00.0 | 16:39.999 | |
| 5 5. Rwms2 G&R | 2/0:00.0 | 16:39.999 | |
| 6 6. Sl6 Rud | 2/0:00.0 | 16:39.999 |
4Box Stock Slash
Heat 4
| # Pos | Laps/Time | Fast | |
|---|---|---|---|
| 1 1. Rwms3 The Kings | 2/0:00.0 | 16:39.999 | |
| 2 2. Gv3 Gila Racers | 2/0:00.0 | 16:39.999 | |
| 3 3. Swjh2 Guardians Of Thr Gal | 2/0:00.0 | 16:39.999 | |
| 4 4. Soma2 Rc Reapers | 2/0:00.0 | 16:39.999 | |
| 5 5. Slms2 Speedy | 2/0:00.0 | 16:39.999 |
5Box Stock Slash
Heat 5
| # Pos | Laps/Time | Fast | |
|---|---|---|---|
| 1 1. Crane4 Blazing Cougars | 2/0:00.0 | 16:39.999 | |
| 2 2. Gv4 Nunez Party | 2/0:00.0 | 16:39.999 | |
| 3 3. Swjh3 Black Mambas | 2/0:00.0 | 16:39.999 | |
| 4 4. Soma3 Dust Devils | 2/0:00.0 | 16:39.999 | |
| 5 5. Sl3 Rusty | 2/0:00.0 | 16:39.999 |
6Box Stock Slash
Heat 6
| # Pos | Laps/Time | Fast | |
|---|---|---|---|
| 1 1. Sl7 Desert King | 2/0:00.0 | 16:39.999 | |
| 2 2. Rwms7 Cmbn | 2/0:00.0 | 16:39.999 | |
| 3 3. Soma4 Clon | 2/0:00.0 | 16:39.999 | |
| 4 4. Sl4 Cruz | 2/0:00.0 | 16:39.999 | |
| 5 5. Rwms4 Fmf Racers | 2/0:00.0 | 16:39.999 |
7Box Stock Slash
Heat 7
| # Pos | Laps/Time | Fast | |
|---|---|---|---|
| 1 1. Rwms6 Thunderstruck | 2/0:00.0 | 16:39.999 | |
| 2 2. Soma5 Master Of Clones | 2/0:00.0 | 16:39.999 | |
| 3 3. Wood3 Roadie Rangers 3 | 2/0:00.0 | 16:39.999 | |
| 4 4. Crane8 Moon Pie | 2/0:00.0 | 16:39.999 | |
| 5 5. Soma7 Pollo Loco | 2/0:00.0 | 16:39.999 |
8Box Stock Slash
Heat 8
| # Pos | Laps/Time | Fast | |
|---|---|---|---|
| 1 1. Sl9 Sonic | 2/0:00.0 | 16:39.999 | |
| 2 2. Crane9 Colton Crew | 2/0:00.0 | 16:39.999 | |
| 3 3. Soma8 Alex 67 | 2/0:00.0 | 16:39.999 | |
| 4 4. Sl8 Blue Demon | 1/0:00.0 | 16:39.999 | |
| 5 5. Rw8 The Baggers | 1/0:00.0 | 16:39.999 |
Round 3
1Box Stock Slash
J Main
| # Pos | Laps/Time | Fast | |
|---|---|---|---|
| 1 1. Soma6 Desert Cobras | 2/0:00.0 | 16:39.999 | |
| 2 2. Soma4 Clon | 2/0:00.0 | 16:39.999 | |
| 3 3. Sl5 Rex | 2/0:00.0 | 16:39.999 | |
| 4 4. Sl9 Sonic | 2/0:00.0 | 16:39.999 | |
| 5 5. Wood5 Roadie Rangers 5 | 2/0:00.0 | 16:39.999 | |
| 6 6. Wood1 Roadie Rangers1 | 2/0:00.0 | 16:39.999 |
2Box Stock Slash
I Main
| # Pos | Laps/Time | Fast | |
|---|---|---|---|
| 5 1. Gv1 Monsters | 2/0:00.0 | 16:39.999 | |
| 1 2. Wood2 Roadie Rangers 2 | 1/0:00.0 | 16:39.999 | |
| 2 3. Soma9 Driving Pixies | 1/0:00.0 | 16:39.999 | |
| 3 4. Rw8 The Baggers | 1/0:00.0 | 16:39.999 | |
| 4 5. Sl10 Maximp | 1/0:00.0 | 16:39.999 | |
| 6 6. (Null) | 1/0:00.0 | 16:39.999 |
3Box Stock Slash
H Main
| # Pos | Laps/Time | Fast | |
|---|---|---|---|
| 1 1. Rwms4 Fmf Racers | 2/0:00.0 | 16:39.999 | |
| 2 2. Soma2 Rc Reapers | 2/0:00.0 | 16:39.999 | |
| 3 3. Sl6 Rud | 2/0:00.0 | 16:39.999 | |
| 4 4. Gv3 Gila Racers | 2/0:00.0 | 16:39.999 | |
| 5 5. Soma8 Alex 67 | 2/0:00.0 | 16:39.999 | |
| 6 6. Wood5 Roadie Rangers 5 | 2/0:00.0 | 16:39.999 |
4Box Stock Slash
G Main
| # Pos | Laps/Time | Fast | |
|---|---|---|---|
| 6 1. Slms8 Rapidito | 2/0:00.0 | 16:39.999 | |
| 1 2. Sl8 Blue Demon | 1/0:00.0 | 16:39.999 | |
| 2 3. Crane4 Blazing Cougars | 1/0:00.0 | 16:39.999 | |
| 3 4. Crane9 Colton Crew | 1/0:00.0 | 16:39.999 | |
| 4 5. Soma10 Cookie Monster | 1/0:00.0 | 16:39.999 | |
| 5 6. Sl4 Cruz | 1/0:00.0 | 16:39.999 | |
| 7 7. Rwms4 Fmf Racers | 1/0:00.0 | 16:39.999 |
5Box Stock Slash
F Main
| # Pos | Laps/Time | Fast | |
|---|---|---|---|
| 4 1. Gv2 Gila Monsters | 2/0:00.0 | 16:39.999 | |
| 2 2. Soma5 Master Of Clones | 1/0:00.0 | 16:39.999 | |
| 3 3. Wood3 Roadie Rangers 3 | 1/0:00.0 | 16:39.999 | |
| 5 4. Wood4 Roadie Rangers 4 | 1/0:00.0 | 16:39.999 | |
| 1 5. Gv4 Nunez Party | 0/0:00.0 |
6Box Stock Slash
E Main
| # Pos | Laps/Time | Fast | |
|---|---|---|---|
| 5 1. Slms2 Speedy | 2/0:00.0 | 16:39.999 | |
| 1 2. Swjh3 Black Mambas | 1/0:00.0 | 16:39.999 | |
| 2 3. Sl3 Rusty | 1/0:00.0 | 16:39.999 | |
| 3 4. Soma7 Pollo Loco | 1/0:00.0 | 16:39.999 | |
| 4 5. Crane1 Mistletoe | 1/0:00.0 | 16:39.999 | |
| 6 6. Gv2 Gila Monsters | 1/0:00.0 | 16:39.999 |
7Box Stock Slash
D Main
| # Pos | Laps/Time | Fast | |
|---|---|---|---|
| 3 1. Rwms2 G&R | 2/0:00.0 | 16:39.999 | |
| 1 2. Rwms3 The Kings | 1/0:00.0 | 16:39.999 | |
| 2 3. Swjh2 Guardians Of Thr Gal | 1/0:00.0 | 16:39.999 | |
| 4 4. Crane8 Moon Pie | 1/0:00.0 | 16:39.999 | |
| 5 5. Soma3 Dust Devils | 1/0:00.0 | 16:39.999 | |
| 6 6. Slms2 Speedy | 1/0:00.0 | 16:39.999 |
8Box Stock Slash
C Main
| # Pos | Laps/Time | Fast | |
|---|---|---|---|
| 4 1. Sl7 Desert King | 2/0:00.0 | 16:39.999 | |
| 1 2. Rwms1 Rpm | 1/0:00.0 | 16:39.999 | |
| 2 3. Rwms7 Cmbn | 1/0:00.0 | 16:39.999 | |
| 5 4. Crane2 Grace Agears | 1/0:00.0 | 16:39.999 | |
| 6 5. Rwms2 G&R | 1/0:00.0 | 16:39.999 | |
| 3 6. Soma1 Baja Jerky | 0/0:00.0 |
9Box Stock Slash
B Main
| # Pos | Laps/Time | Fast | |
|---|---|---|---|
| 3 1. Crane5 Herbie Goes Bananas | 3/0:00.0 | 16:39.999 | |
| 5 2. Rwms5 The Flash | 3/0:00.0 | 16:39.999 | |
| 6 3. Sl7 Desert King | 3/0:00.0 | 16:39.999 | |
| 1 4. Swjh1 Bumble Bees | 2/0:00.0 | 16:39.999 | |
| 2 5. Crane6 1gpa | 2/0:00.0 | 16:39.999 | |
| 4 6. Rwms6 Thunderstruck | 2/0:00.0 | 16:39.999 |